Airfield :
LOGIN :

Register | Disclaimer

   EN    FR    IT 

 










Legend :    VFR   Marginal VFR   IFR   Intensive IFR   Very Intensive IFR
Visi :
Ceiling :
>= 8 km
>= 3000ft
5 to 8 km
1000 to 3000 ft
1500m to 5 km
500 to 1000 ft
800 to 1500m
200 to 500 ft
< 800m
< 200 ft
Symbols :   Thunderstorms  Fog  Heavy snow  Heavy precipitations  Wind > 20 kt
SIGMETs :     Misc.  Thunderstorms  Icing  Turbulence  Mountain Waves  Volcanic Ashes






- Airport Elevation : 156 ft
- IATA code : MLN


GEML - Melilla

CURRENT METAR :
  • 150930Z 29012KT 240V330 CAVOK 26/18 Q1012

EXPIRED METARs :
  • 150900Z 30011KT 260V340 CAVOK 26/18 Q1012
  • 150830Z 30011KT 250V340 CAVOK 26/18 Q1012
  • 150800Z 29012KT 250V330 CAVOK 26/18 Q1012
  • 150730Z 29013KT 250V330 CAVOK 26/18 Q1012
  • 150700Z 29014KT 260V330 CAVOK 25/18 Q1012

TAF TAF GEML
Valid from the 15 at 06:00 until the 16 at 06:00 UTC


150500Z 1506/1606 27013KT CAVOK TX29/1514Z TN23/1605Z
TEMPO 1506/1510 27016G26KT



MET'MAP, your aeronautical weather chart ! - Copyright ORBIFLY December 2007 - Disclaimer

ORBIFLY MET'MAP TEAM :

Programming & Development : Alexandra Zaïnal
Original concept : Baudouin d'Aumeries
Technical & hardware support : Manuel Goepfert
Assistance : Marc-Olivier Méhu




SOURCES & CREDITS :

   NOAA